createdAt,value
2018-10-12T00:00:39.683Z,0.00
2018-10-12T00:01:39.859Z,0.00
2018-10-12T00:02:40.032Z,0.00
2018-10-12T00:03:40.209Z,0.00
2018-10-12T00:04:40.382Z,0.00
2018-10-12T00:05:40.551Z,0.00
2018-10-12T00:06:40.731Z,0.00
2018-10-12T00:07:40.900Z,0.00
2018-10-12T00:08:41.075Z,0.00
2018-10-12T00:09:41.251Z,0.00
2018-10-12T00:10:41.418Z,0.00
2018-10-12T00:11:41.595Z,0.00
2018-10-12T00:12:41.769Z,0.00
2018-10-12T00:13:41.939Z,0.00
2018-10-12T00:14:42.121Z,0.00
2018-10-12T00:15:42.295Z,0.00
2018-10-12T00:16:42.473Z,0.00
2018-10-12T00:17:42.649Z,0.00
2018-10-12T00:18:42.820Z,0.00
2018-10-12T00:19:42.996Z,0.00
2018-10-12T00:20:43.180Z,0.00
2018-10-12T00:21:43.371Z,0.00
2018-10-12T00:22:43.542Z,0.00
2018-10-12T00:23:43.717Z,0.00
2018-10-12T00:24:43.904Z,0.00
2018-10-12T00:25:44.066Z,0.00
2018-10-12T00:26:44.245Z,0.00
2018-10-12T00:27:44.416Z,0.00
2018-10-12T00:28:44.593Z,0.00
2018-10-12T00:29:44.829Z,0.00
2018-10-12T00:30:44.881Z,0.00
2018-10-12T00:31:45.133Z,0.00
2018-10-12T00:32:45.197Z,0.00
2018-10-12T00:33:45.371Z,0.00
2018-10-12T00:34:45.596Z,0.00
2018-10-12T00:35:45.710Z,0.00
2018-10-12T00:36:45.972Z,0.00
2018-10-12T00:37:46.000Z,0.00
2018-10-12T00:38:46.173Z,0.00
2018-10-12T00:39:46.344Z,0.00
2018-10-12T00:40:46.513Z,0.00
2018-10-12T00:41:46.687Z,0.00
2018-10-12T00:42:46.863Z,0.00
2018-10-12T00:43:47.044Z,0.00
2018-10-12T00:44:47.220Z,0.00
2018-10-12T00:45:47.394Z,0.00
2018-10-12T00:46:47.565Z,0.00
2018-10-12T00:47:47.740Z,0.00
2018-10-12T00:48:47.911Z,0.00
2018-10-12T00:49:48.115Z,0.00
2018-10-12T00:50:48.260Z,0.00
2018-10-12T00:51:48.439Z,0.00
2018-10-12T00:52:48.709Z,0.00
2018-10-12T00:53:48.737Z,0.00
2018-10-12T00:54:48.908Z,0.00
2018-10-12T00:55:49.086Z,0.00
2018-10-12T00:56:49.267Z,0.00
2018-10-12T00:57:49.452Z,0.00
2018-10-12T00:58:49.619Z,0.00
2018-10-12T00:59:49.796Z,0.00
2018-10-12T01:00:49.980Z,0.00
2018-10-12T01:01:50.151Z,0.00
2018-10-12T01:02:50.339Z,0.00
2018-10-12T01:03:50.512Z,0.00
2018-10-12T01:04:50.687Z,0.00
2018-10-12T01:05:50.866Z,0.00
2018-10-12T01:06:51.037Z,0.00
2018-10-12T01:07:51.220Z,0.00
2018-10-12T01:08:51.447Z,0.00
2018-10-12T01:09:51.569Z,0.00
2018-10-12T01:10:51.740Z,0.00
2018-10-12T01:11:51.915Z,0.00
2018-10-12T01:12:52.090Z,0.00
2018-10-12T01:13:52.262Z,0.00
2018-10-12T01:14:52.433Z,0.00
2018-10-12T01:15:52.618Z,0.00
2018-10-12T01:16:52.794Z,0.00
2018-10-12T01:17:52.970Z,0.00
2018-10-12T01:18:53.146Z,0.00
2018-10-12T01:19:53.317Z,0.00
2018-10-12T01:20:53.489Z,0.00
2018-10-12T01:21:53.674Z,0.00
2018-10-12T01:22:53.854Z,0.00
2018-10-12T01:23:54.025Z,0.00
2018-10-12T01:24:54.200Z,0.00
2018-10-12T01:25:54.374Z,0.00
2018-10-12T01:26:54.547Z,0.00
2018-10-12T01:27:54.724Z,0.00
2018-10-12T01:28:54.897Z,0.00
2018-10-12T01:29:55.072Z,0.00
2018-10-12T01:30:55.247Z,0.00
2018-10-12T01:31:55.424Z,0.00
2018-10-12T01:32:55.603Z,0.00
2018-10-12T01:33:55.783Z,0.00
2018-10-12T01:34:55.955Z,0.00
2018-10-12T01:35:56.127Z,0.00
2018-10-12T01:36:56.309Z,0.00
2018-10-12T01:37:56.488Z,0.00
2018-10-12T01:38:56.654Z,0.00
2018-10-12T01:39:56.828Z,0.00
2018-10-12T01:40:56.994Z,0.00
2018-10-12T01:41:57.228Z,0.00
2018-10-12T01:42:57.386Z,0.00
2018-10-12T01:43:57.569Z,0.00
2018-10-12T01:44:57.750Z,0.00
2018-10-12T01:45:57.927Z,0.00
2018-10-12T01:46:58.095Z,0.00
2018-10-12T01:47:58.299Z,0.00
2018-10-12T01:48:58.481Z,0.00
2018-10-12T01:49:58.664Z,0.00
2018-10-12T01:50:58.849Z,0.00
2018-10-12T01:51:59.030Z,0.00
2018-10-12T01:52:59.219Z,0.00
2018-10-12T01:53:59.506Z,0.00
2018-10-12T01:54:59.569Z,0.00
2018-10-12T01:55:59.654Z,0.00
2018-10-12T01:57:02.789Z,0.00
2018-10-12T01:58:00.383Z,0.00
2018-10-12T01:59:00.233Z,0.00
2018-10-12T02:00:00.418Z,0.00
2018-10-12T02:01:00.734Z,0.00
2018-10-12T02:02:00.761Z,0.00
2018-10-12T02:03:00.928Z,0.00
2018-10-12T02:04:01.105Z,0.00
2018-10-12T02:05:01.274Z,0.00
2018-10-12T02:06:01.446Z,0.00
2018-10-12T02:07:01.621Z,0.00
2018-10-12T02:08:01.824Z,0.00
2018-10-12T02:09:02.011Z,0.00
2018-10-12T02:10:02.232Z,0.00
2018-10-12T02:11:02.360Z,0.00
2018-10-12T02:12:02.526Z,0.00
2018-10-12T02:13:02.700Z,0.00
2018-10-12T02:14:02.937Z,0.00
2018-10-12T02:15:02.993Z,0.00
2018-10-12T02:16:03.180Z,0.00
2018-10-12T02:17:03.382Z,0.00
2018-10-12T02:18:03.583Z,0.00
2018-10-12T02:19:03.762Z,0.00
2018-10-12T02:20:03.956Z,0.00
2018-10-12T02:21:04.147Z,0.00
2018-10-12T02:22:04.346Z,0.00
2018-10-12T02:23:04.591Z,0.00
2018-10-12T02:24:04.675Z,0.00
2018-10-12T02:25:04.862Z,0.00
2018-10-12T02:26:05.032Z,0.00
2018-10-12T02:27:05.210Z,0.00
2018-10-12T02:28:05.386Z,0.00
2018-10-12T02:29:05.552Z,0.00
2018-10-12T02:30:05.744Z,0.00
2018-10-12T02:31:05.931Z,0.00
2018-10-12T02:32:06.110Z,0.00
2018-10-12T02:33:06.312Z,0.00
2018-10-12T02:34:06.467Z,0.00
2018-10-12T02:35:06.640Z,0.00
2018-10-12T02:36:06.825Z,0.00
2018-10-12T02:37:07.001Z,0.00
2018-10-12T02:38:07.164Z,0.00
2018-10-12T02:39:07.345Z,0.00
2018-10-12T02:40:07.514Z,0.00
2018-10-12T02:41:07.681Z,0.00
2018-10-12T02:42:07.853Z,0.00
2018-10-12T02:43:08.026Z,0.00
2018-10-12T02:44:08.197Z,0.00
2018-10-12T02:45:08.369Z,0.00
2018-10-12T02:46:08.540Z,0.00
2018-10-12T02:47:08.709Z,0.00
2018-10-12T02:48:08.883Z,0.00
2018-10-12T02:49:09.052Z,0.00
2018-10-12T02:50:09.229Z,0.00
2018-10-12T02:51:09.408Z,0.00
2018-10-12T02:52:09.579Z,0.00
2018-10-12T02:53:09.752Z,0.00
2018-10-12T02:54:09.929Z,0.00
2018-10-12T02:55:10.103Z,0.00
2018-10-12T02:56:10.280Z,0.00
2018-10-12T02:57:10.450Z,0.00
2018-10-12T02:58:10.616Z,0.00
2018-10-12T02:59:10.795Z,0.00
2018-10-12T03:00:10.968Z,0.00
2018-10-12T03:01:11.137Z,0.00
2018-10-12T03:02:11.308Z,0.00
2018-10-12T03:03:11.484Z,0.00
2018-10-12T03:04:11.665Z,0.00
2018-10-12T03:05:11.832Z,0.00
2018-10-12T03:06:12.006Z,0.00
2018-10-12T03:07:12.175Z,0.00
2018-10-12T03:08:12.397Z,0.00
2018-10-12T03:09:12.527Z,0.00
2018-10-12T03:10:12.702Z,0.00
2018-10-12T03:11:12.876Z,0.00
2018-10-12T03:12:13.055Z,0.00
2018-10-12T03:13:13.231Z,0.00
2018-10-12T03:14:13.397Z,0.00
2018-10-12T03:15:13.571Z,0.00
2018-10-12T03:16:13.736Z,0.00
2018-10-12T03:17:13.909Z,0.00
2018-10-12T03:18:14.084Z,0.00
2018-10-12T03:19:14.251Z,0.00
2018-10-12T03:20:14.433Z,0.00
2018-10-12T03:21:14.606Z,0.00
2018-10-12T03:22:14.778Z,0.00
2018-10-12T03:23:14.946Z,0.00
2018-10-12T03:24:15.120Z,0.00
2018-10-12T03:25:15.291Z,0.00
2018-10-12T03:26:15.460Z,0.00
2018-10-12T03:27:15.643Z,0.00
2018-10-12T03:28:15.814Z,0.00
2018-10-12T03:29:15.987Z,0.00
2018-10-12T03:30:16.173Z,0.00
2018-10-12T03:31:16.334Z,0.00
2018-10-12T03:32:16.507Z,0.00
2018-10-12T03:33:16.676Z,0.00
2018-10-12T03:34:16.844Z,0.00
2018-10-12T03:35:17.013Z,0.00
2018-10-12T03:36:17.182Z,0.00
2018-10-12T03:37:17.430Z,0.00
2018-10-12T03:38:17.527Z,0.00
2018-10-12T03:39:17.700Z,0.00
2018-10-12T03:40:17.875Z,0.00
2018-10-12T03:41:18.045Z,0.00
2018-10-12T03:42:18.234Z,0.00
2018-10-12T03:43:18.402Z,0.00
2018-10-12T03:44:18.597Z,0.00
2018-10-12T03:45:18.740Z,0.00
2018-10-12T03:46:18.912Z,0.00
2018-10-12T03:47:19.088Z,0.00
2018-10-12T03:48:19.259Z,0.00
2018-10-12T03:49:19.430Z,0.00
2018-10-12T03:50:19.615Z,0.00
2018-10-12T03:51:19.777Z,0.00
2018-10-12T03:52:19.950Z,0.00
2018-10-12T03:53:20.121Z,0.00
2018-10-12T03:54:20.296Z,0.00
2018-10-12T03:55:20.466Z,0.00
2018-10-12T03:56:20.653Z,0.00
2018-10-12T03:57:20.822Z,0.00
2018-10-12T03:58:20.999Z,0.00
2018-10-12T03:59:22.929Z,0.00
2018-10-12T04:00:21.359Z,0.00
2018-10-12T04:01:21.533Z,0.00
2018-10-12T04:02:21.704Z,0.00
2018-10-12T04:03:21.875Z,0.00
2018-10-12T04:04:22.048Z,0.00
2018-10-12T04:05:22.226Z,0.00
2018-10-12T04:06:22.393Z,0.00
2018-10-12T04:07:22.566Z,0.00
2018-10-12T04:08:22.735Z,0.00
2018-10-12T04:09:22.911Z,0.00
2018-10-12T04:10:23.209Z,0.00
2018-10-12T04:11:23.195Z,0.00
2018-10-12T04:12:23.370Z,0.00
2018-10-12T04:13:23.594Z,0.00
2018-10-12T04:14:23.660Z,0.00
2018-10-12T04:15:23.903Z,0.00
2018-10-12T04:16:23.936Z,0.00
2018-10-12T04:17:24.110Z,0.00
2018-10-12T04:18:24.282Z,0.00
2018-10-12T04:19:24.450Z,0.00
2018-10-12T04:20:24.630Z,0.00
2018-10-12T04:21:25.110Z,0.00
2018-10-12T04:22:24.959Z,0.00
2018-10-12T04:23:25.118Z,0.00
2018-10-12T04:24:25.306Z,0.00
2018-10-12T04:25:25.480Z,0.00
2018-10-12T04:26:25.659Z,0.00
2018-10-12T04:27:25.828Z,0.00
2018-10-12T04:28:26.052Z,0.00
2018-10-12T04:29:26.179Z,0.00
2018-10-12T04:30:26.358Z,0.00
2018-10-12T04:31:26.533Z,0.00
2018-10-12T04:32:26.705Z,0.00
2018-10-12T04:33:26.883Z,0.00
2018-10-12T04:34:27.051Z,0.00
2018-10-12T04:35:27.218Z,0.00
2018-10-12T04:36:27.406Z,0.00
2018-10-12T04:37:27.557Z,0.00
2018-10-12T04:38:27.734Z,0.00
2018-10-12T04:39:27.913Z,0.00
2018-10-12T04:40:28.087Z,0.00
2018-10-12T04:41:28.264Z,0.00
2018-10-12T04:42:28.433Z,0.00
2018-10-12T04:43:28.602Z,0.00
2018-10-12T04:44:28.780Z,0.00
2018-10-12T04:45:29.008Z,0.00
2018-10-12T04:46:29.144Z,0.00
2018-10-12T04:47:29.313Z,0.00
2018-10-12T04:48:29.497Z,0.00
2018-10-12T04:49:29.668Z,0.00
2018-10-12T04:50:29.844Z,0.00
2018-10-12T04:51:30.024Z,0.00
2018-10-12T04:52:30.273Z,0.00
2018-10-12T04:53:30.452Z,0.00
2018-10-12T04:54:30.547Z,0.00
2018-10-12T04:55:30.737Z,0.00
2018-10-12T04:56:30.914Z,0.00
2018-10-12T04:57:31.084Z,0.00
2018-10-12T04:58:31.263Z,0.00
2018-10-12T04:59:31.439Z,0.00
2018-10-12T05:00:31.626Z,0.00
2018-10-12T05:01:31.794Z,0.00
2018-10-12T05:02:31.974Z,0.00
2018-10-12T05:03:32.197Z,0.00
2018-10-12T05:04:32.262Z,0.00
2018-10-12T05:05:32.447Z,0.00
2018-10-12T05:06:32.634Z,0.00
2018-10-12T05:07:32.885Z,0.00
2018-10-12T05:08:32.995Z,0.00
2018-10-12T05:09:34.350Z,0.00
2018-10-12T05:10:34.131Z,0.00
2018-10-12T05:11:34.718Z,0.00
2018-10-12T05:12:33.927Z,0.00
2018-10-12T05:13:36.589Z,0.00
2018-10-12T05:14:33.869Z,0.00
2018-10-12T05:15:34.805Z,0.00
2018-10-12T05:16:34.243Z,0.00
2018-10-12T05:17:34.430Z,0.00
2018-10-12T05:18:34.811Z,0.00
2018-10-12T05:19:35.002Z,0.00
2018-10-12T05:20:36.982Z,0.00
2018-10-12T05:21:37.453Z,0.00
2018-10-12T05:22:35.145Z,0.00
2018-10-12T05:23:35.313Z,0.00
2018-10-12T05:24:35.495Z,0.00
2018-10-12T05:25:35.661Z,0.00
2018-10-12T05:26:35.833Z,0.00
2018-10-12T05:27:36.004Z,0.00
2018-10-12T05:28:36.177Z,0.00
2018-10-12T05:29:36.345Z,0.00
2018-10-12T05:30:36.520Z,0.00
2018-10-12T05:31:36.701Z,0.00
2018-10-12T05:32:36.870Z,0.00
2018-10-12T05:33:37.049Z,0.00
2018-10-12T05:34:37.224Z,0.00
2018-10-12T05:35:37.395Z,0.00
2018-10-12T05:36:37.573Z,0.00
2018-10-12T05:37:37.744Z,0.00
2018-10-12T05:38:37.913Z,0.00
2018-10-12T05:39:38.085Z,0.00
2018-10-12T05:40:38.265Z,0.00
2018-10-12T05:41:39.388Z,0.00
2018-10-12T05:42:38.622Z,0.00
2018-10-12T05:43:38.856Z,0.00
2018-10-12T05:44:38.963Z,0.00
2018-10-12T05:45:39.136Z,0.00
2018-10-12T05:46:39.307Z,0.00
2018-10-12T05:47:39.480Z,5.63
2018-10-12T05:48:39.697Z,5.63
2018-10-12T05:49:41.924Z,5.63
2018-10-12T05:50:43.158Z,5.63
2018-10-12T05:51:43.268Z,5.63
2018-10-12T05:52:41.873Z,5.63
2018-10-12T05:53:40.458Z,5.63
2018-10-12T05:54:40.642Z,5.63
2018-10-12T05:55:40.824Z,5.63
2018-10-12T05:56:40.991Z,5.63
2018-10-12T05:57:41.155Z,11.25
2018-10-12T05:58:41.340Z,11.25
2018-10-12T05:59:41.505Z,11.25
2018-10-12T06:00:41.687Z,11.25
2018-10-12T06:01:41.852Z,11.25
2018-10-12T06:02:42.029Z,11.25
2018-10-12T06:03:42.191Z,11.25
2018-10-12T06:04:47.334Z,11.25
2018-10-12T06:05:42.572Z,16.88
2018-10-12T06:06:42.747Z,16.88
2018-10-12T06:07:42.923Z,16.88
2018-10-12T06:08:43.102Z,16.88
2018-10-12T06:09:43.366Z,16.88
2018-10-12T06:10:43.451Z,16.88
2018-10-12T06:11:43.620Z,16.88
2018-10-12T06:12:43.798Z,22.50
2018-10-12T06:13:43.970Z,22.50
2018-10-12T06:14:44.149Z,22.50
2018-10-12T06:15:44.449Z,22.50
2018-10-12T06:16:44.500Z,22.50
2018-10-12T06:17:44.676Z,22.50
2018-10-12T06:18:44.842Z,22.50
2018-10-12T06:19:45.017Z,22.50
2018-10-12T06:20:45.349Z,28.13
2018-10-12T06:21:45.514Z,28.13
2018-10-12T06:22:45.574Z,28.13
2018-10-12T06:23:45.743Z,28.13
2018-10-12T06:24:46.277Z,28.13
2018-10-12T06:25:46.067Z,28.13
2018-10-12T06:26:46.248Z,28.13
2018-10-12T06:27:46.407Z,28.13
2018-10-12T06:28:46.574Z,33.75
2018-10-12T06:29:46.753Z,33.75
2018-10-12T06:30:46.935Z,33.75
2018-10-12T06:31:47.110Z,33.75
2018-10-12T06:32:47.297Z,33.75
2018-10-12T06:33:47.453Z,33.75
2018-10-12T06:34:47.626Z,39.38
2018-10-12T06:35:47.807Z,39.38
2018-10-12T06:36:47.984Z,39.38
2018-10-12T06:37:48.162Z,39.38
2018-10-12T06:38:48.334Z,45.00
2018-10-12T06:39:48.515Z,45.00
2018-10-12T06:40:48.706Z,45.00
2018-10-12T06:41:49.172Z,45.00
2018-10-12T06:42:49.023Z,45.00
2018-10-12T06:43:49.196Z,45.00
2018-10-12T06:44:49.364Z,50.63
2018-10-12T06:45:49.607Z,50.63
2018-10-12T06:46:49.875Z,50.63
2018-10-12T06:47:49.917Z,56.25
2018-10-12T06:48:50.093Z,56.25
2018-10-12T06:49:50.298Z,56.25
2018-10-12T06:50:50.477Z,61.88
2018-10-12T06:51:50.666Z,61.88
2018-10-12T06:52:50.843Z,67.50
2018-10-12T06:53:51.073Z,73.13
2018-10-12T06:54:51.189Z,73.13
2018-10-12T06:55:51.363Z,73.13
2018-10-12T06:56:51.573Z,303.75
2018-10-12T06:57:54.970Z,815.63
2018-10-12T06:58:51.735Z,860.63
2018-10-12T06:59:51.977Z,765.00
2018-10-12T07:00:52.086Z,855.00
2018-10-12T07:01:52.271Z,1006.88
2018-10-12T07:02:52.442Z,973.13
2018-10-12T07:03:52.631Z,945.00
2018-10-12T07:04:52.810Z,675.00
2018-10-12T07:05:52.992Z,607.50
2018-10-12T07:06:53.168Z,680.63
2018-10-12T07:07:53.345Z,646.88
2018-10-12T07:08:53.762Z,697.50
2018-10-12T07:09:53.975Z,961.88
2018-10-12T07:10:53.810Z,1001.25
2018-10-12T07:11:54.004Z,1023.75
2018-10-12T07:12:54.196Z,804.38
2018-10-12T07:13:54.577Z,714.38
2018-10-12T07:14:54.583Z,894.38
2018-10-12T07:15:54.789Z,849.38
2018-10-12T07:16:54.951Z,984.38
2018-10-12T07:17:55.126Z,888.75
2018-10-12T07:18:55.305Z,1018.13
2018-10-12T07:19:55.482Z,1271.25
2018-10-12T07:20:55.657Z,1164.38
2018-10-12T07:21:55.836Z,1096.88
2018-10-12T07:22:56.038Z,984.38
2018-10-12T07:23:56.241Z,950.63
2018-10-12T07:24:56.437Z,888.75
2018-10-12T07:25:56.630Z,725.63
2018-10-12T07:26:56.800Z,545.63
2018-10-12T07:27:57.041Z,393.75
2018-10-12T07:28:57.186Z,281.25
2018-10-12T07:29:57.387Z,213.75
2018-10-12T07:30:58.018Z,174.38
2018-10-12T07:31:58.003Z,163.13
2018-10-12T07:32:58.053Z,151.88
2018-10-12T07:33:58.118Z,146.25
2018-10-12T07:34:58.547Z,140.63
2018-10-12T07:35:58.708Z,135.00
2018-10-12T07:36:58.646Z,135.00
2018-10-12T07:37:59.345Z,135.00
2018-10-12T07:38:59.219Z,135.00
2018-10-12T07:39:59.214Z,135.00
2018-10-12T07:40:59.409Z,135.00
2018-10-12T07:41:59.620Z,129.38
2018-10-12T07:42:59.814Z,123.75
2018-10-12T07:44:00.209Z,112.50
2018-10-12T07:45:00.137Z,106.88
2018-10-12T07:46:00.322Z,95.63
2018-10-12T07:47:00.501Z,95.63
2018-10-12T07:48:00.712Z,95.63
2018-10-12T07:49:01.246Z,90.00
2018-10-12T07:50:01.484Z,84.38
2018-10-12T07:51:01.292Z,78.75
2018-10-12T07:52:01.470Z,78.75
2018-10-12T07:53:01.923Z,78.75
2018-10-12T07:54:03.219Z,78.75
2018-10-12T07:55:02.359Z,78.75
2018-10-12T07:56:02.941Z,78.75
2018-10-12T07:57:02.593Z,78.75
2018-10-12T07:58:03.749Z,78.75
2018-10-12T07:59:03.378Z,78.75
2018-10-12T08:00:04.729Z,78.75
2018-10-12T08:01:03.886Z,78.75
2018-10-12T08:02:03.591Z,78.75
2018-10-12T08:03:04.760Z,78.75
2018-10-12T08:04:04.723Z,84.38
2018-10-12T08:05:05.146Z,90.00
2018-10-12T08:06:05.254Z,90.00
2018-10-12T08:07:04.596Z,84.38
2018-10-12T08:08:04.910Z,84.38
2018-10-12T08:09:05.766Z,84.38
2018-10-12T08:10:05.690Z,90.00
2018-10-12T08:11:05.252Z,95.63
2018-10-12T08:12:05.313Z,90.00
2018-10-12T08:13:06.104Z,95.63
2018-10-12T08:14:06.731Z,95.63
2018-10-12T08:15:06.003Z,90.00
2018-10-12T08:16:07.081Z,84.38
2018-10-12T08:17:06.094Z,78.75
2018-10-12T08:18:06.477Z,78.75
2018-10-12T08:19:06.870Z,78.75
2018-10-12T08:20:08.647Z,78.75
2018-10-12T08:21:07.287Z,78.75
2018-10-12T08:22:08.272Z,84.38
2018-10-12T08:23:07.336Z,90.00
2018-10-12T08:24:07.340Z,90.00
2018-10-12T08:25:08.239Z,90.00
2018-10-12T08:26:09.206Z,84.38
2018-10-12T08:27:08.780Z,84.38
2018-10-12T08:28:08.914Z,84.38
2018-10-12T08:29:08.802Z,90.00
2018-10-12T08:30:09.531Z,90.00
2018-10-12T08:31:08.743Z,90.00
2018-10-12T08:32:09.458Z,90.00
2018-10-12T08:33:08.751Z,90.00
2018-10-12T08:34:09.896Z,90.00
2018-10-12T08:35:09.868Z,90.00
2018-10-12T08:36:10.085Z,95.63
2018-10-12T08:37:10.072Z,95.63
2018-10-12T08:38:09.115Z,90.00
2018-10-12T08:39:10.151Z,90.00
2018-10-12T08:40:10.471Z,90.00
2018-10-12T08:41:10.468Z,90.00
2018-10-12T08:42:10.322Z,101.25
2018-10-12T08:43:10.576Z,95.63
2018-10-12T08:44:10.416Z,95.63
2018-10-12T08:45:11.040Z,101.25
2018-10-12T08:46:11.143Z,101.25
2018-10-12T08:47:10.991Z,101.25
2018-10-12T08:48:11.206Z,101.25
2018-10-12T08:49:10.505Z,101.25
2018-10-12T08:50:11.626Z,106.88
2018-10-12T08:51:11.345Z,106.88
2018-10-12T08:52:11.999Z,106.88
2018-10-12T08:53:12.475Z,112.50
2018-10-12T08:54:11.971Z,112.50
2018-10-12T08:55:12.365Z,112.50
2018-10-12T08:56:13.185Z,112.50
2018-10-12T08:57:12.025Z,118.13
2018-10-12T08:58:12.853Z,118.13
2018-10-12T08:59:12.843Z,118.13
2018-10-12T09:00:13.007Z,118.13
2018-10-12T09:01:13.746Z,123.75
2018-10-12T09:02:13.861Z,123.75
2018-10-12T09:03:13.559Z,123.75
2018-10-12T09:04:13.413Z,123.75
2018-10-12T09:05:14.564Z,123.75
2018-10-12T09:06:14.518Z,123.75
2018-10-12T09:07:14.949Z,118.13
2018-10-12T09:08:14.577Z,118.13
2018-10-12T09:09:14.039Z,123.75
2018-10-12T09:10:15.710Z,123.75
2018-10-12T09:11:14.928Z,123.75
2018-10-12T09:12:15.562Z,123.75
2018-10-12T09:13:15.542Z,123.75
2018-10-12T09:14:15.866Z,123.75
2018-10-12T09:15:16.115Z,123.75
2018-10-12T09:16:15.987Z,123.75
2018-10-12T09:17:16.107Z,123.75
2018-10-12T09:18:16.659Z,123.75
2018-10-12T09:19:16.691Z,123.75
2018-10-12T09:20:16.773Z,123.75
2018-10-12T09:21:16.531Z,123.75
2018-10-12T09:22:16.671Z,123.75
2018-10-12T09:23:17.222Z,123.75
2018-10-12T09:24:16.688Z,123.75
2018-10-12T09:25:17.831Z,123.75
2018-10-12T09:26:17.421Z,123.75
2018-10-12T09:27:17.398Z,123.75
2018-10-12T09:28:17.034Z,118.13
2018-10-12T09:29:17.088Z,118.13
2018-10-12T09:30:17.251Z,118.13
2018-10-12T09:31:17.411Z,123.75
2018-10-12T09:32:17.680Z,123.75
2018-10-12T09:33:17.593Z,123.75
2018-10-12T09:34:17.778Z,123.75
2018-10-12T09:35:17.967Z,123.75
2018-10-12T09:36:18.158Z,123.75
2018-10-12T09:37:18.349Z,123.75
2018-10-12T09:38:18.523Z,123.75
2018-10-12T09:39:18.704Z,123.75
2018-10-12T09:40:18.879Z,123.75
2018-10-12T09:41:19.055Z,123.75
2018-10-12T09:42:19.230Z,123.75
2018-10-12T09:43:19.474Z,123.75
2018-10-12T09:44:19.623Z,123.75
2018-10-12T09:45:19.702Z,123.75
2018-10-12T09:46:20.436Z,123.75
2018-10-12T09:47:21.165Z,129.38
2018-10-12T09:48:21.529Z,129.38
2018-10-12T09:49:22.594Z,129.38
2018-10-12T09:50:22.485Z,129.38
2018-10-12T09:51:22.849Z,129.38
2018-10-12T09:52:21.773Z,129.38
2018-10-12T09:53:22.293Z,135.00
2018-10-12T09:54:23.385Z,135.00
2018-10-12T09:55:22.118Z,135.00
2018-10-12T09:56:22.738Z,135.00
2018-10-12T09:57:21.901Z,140.63
2018-10-12T09:58:24.277Z,146.25
2018-10-12T09:59:23.216Z,146.25
2018-10-12T10:00:23.840Z,146.25
2018-10-12T10:01:23.851Z,151.88
2018-10-12T10:02:24.245Z,163.13
2018-10-12T10:03:25.099Z,168.75
2018-10-12T10:04:23.902Z,174.38
2018-10-12T10:05:25.277Z,185.63
2018-10-12T10:06:24.650Z,191.25
2018-10-12T10:07:23.377Z,202.50
2018-10-12T10:08:24.085Z,202.50
2018-10-12T10:09:24.339Z,213.75
2018-10-12T10:10:25.398Z,225.00
2018-10-12T10:11:25.039Z,230.63
2018-10-12T10:12:24.769Z,247.50
2018-10-12T10:13:25.273Z,264.38
2018-10-12T10:14:26.301Z,292.50
2018-10-12T10:15:27.025Z,320.63
2018-10-12T10:16:27.029Z,371.25
2018-10-12T10:17:26.321Z,427.50
2018-10-12T10:18:27.863Z,517.50
2018-10-12T10:19:25.707Z,601.88
2018-10-12T10:20:28.089Z,748.13
2018-10-12T10:21:28.404Z,950.63
2018-10-12T10:22:27.561Z,1215.00
2018-10-12T10:23:28.624Z,1428.75
2018-10-12T10:24:29.869Z,1541.25
2018-10-12T10:25:28.094Z,1636.88
2018-10-12T10:26:29.780Z,1715.63
2018-10-12T10:27:28.268Z,1766.25
2018-10-12T10:28:28.056Z,1755.00
2018-10-12T10:29:30.115Z,1732.50
2018-10-12T10:30:29.400Z,1704.38
2018-10-12T10:31:30.301Z,1648.13
2018-10-12T10:32:28.615Z,1620.00
2018-10-12T10:33:28.939Z,1591.88
2018-10-12T10:34:30.376Z,1591.88
2018-10-12T10:35:31.601Z,1580.63
2018-10-12T10:36:31.870Z,1575.00
2018-10-12T10:37:31.816Z,1575.00
2018-10-12T10:38:28.898Z,1563.75
2018-10-12T10:39:29.093Z,1586.25
2018-10-12T10:40:29.278Z,1575.00
2018-10-12T10:41:29.470Z,1608.75
2018-10-12T10:42:29.660Z,1636.88
2018-10-12T10:43:30.020Z,1659.38
2018-10-12T10:44:30.000Z,1670.63
2018-10-12T10:45:30.190Z,1676.25
2018-10-12T10:46:30.377Z,1665.00
2018-10-12T10:47:30.566Z,1665.00
2018-10-12T10:48:30.751Z,1648.13
2018-10-12T10:49:30.936Z,1648.13
2018-10-12T10:50:31.132Z,1642.50
2018-10-12T10:51:31.330Z,1631.25
2018-10-12T10:52:31.519Z,1597.50
2018-10-12T10:53:31.772Z,1591.88
2018-10-12T10:54:31.887Z,1608.75
2018-10-12T10:55:32.081Z,1625.63
2018-10-12T10:56:32.280Z,1591.88
2018-10-12T10:57:32.459Z,1586.25
2018-10-12T10:58:32.648Z,1552.50
2018-10-12T10:59:32.841Z,1546.88
2018-10-12T11:00:33.024Z,1535.63
2018-10-12T11:01:33.209Z,1558.13
2018-10-12T11:02:33.479Z,1563.75
2018-10-12T11:03:33.598Z,1546.88
2018-10-12T11:04:33.778Z,1535.63
2018-10-12T11:05:33.994Z,1524.38
2018-10-12T11:06:34.171Z,1518.75
2018-10-12T11:07:34.369Z,1535.63
2018-10-12T11:08:35.202Z,1530.00
2018-10-12T11:09:35.062Z,1535.63
2018-10-12T11:10:35.166Z,1535.63
2018-10-12T11:11:36.553Z,1530.00
2018-10-12T11:12:35.328Z,1507.50
2018-10-12T11:13:35.711Z,1518.75
2018-10-12T11:14:35.780Z,1513.13
2018-10-12T11:15:35.983Z,1507.50
2018-10-12T11:16:36.103Z,1485.00
2018-10-12T11:17:36.060Z,1490.63
2018-10-12T11:18:36.253Z,1496.25
2018-10-12T11:19:36.423Z,1490.63
2018-10-12T11:20:36.512Z,1462.50
2018-10-12T11:21:36.704Z,1462.50
2018-10-12T11:22:36.894Z,1445.63
2018-10-12T11:23:37.105Z,1440.00
2018-10-12T11:24:37.368Z,1428.75
2018-10-12T11:25:37.486Z,1440.00
2018-10-12T11:26:37.723Z,1451.25
2018-10-12T11:27:37.877Z,1456.88
2018-10-12T11:28:38.132Z,1479.38
2018-10-12T11:29:38.218Z,1462.50
2018-10-12T11:30:38.397Z,1440.00
2018-10-12T11:31:38.632Z,1417.50
2018-10-12T11:32:38.751Z,1406.25
2018-10-12T11:33:38.898Z,1395.00
2018-10-12T11:34:39.800Z,1395.00
2018-10-12T11:35:39.247Z,1378.13
2018-10-12T11:36:39.436Z,1366.88
2018-10-12T11:37:39.618Z,1344.38
2018-10-12T11:38:39.817Z,1338.75
2018-10-12T11:39:40.013Z,1333.13
2018-10-12T11:40:40.200Z,1316.25
2018-10-12T11:41:40.384Z,1316.25
2018-10-12T11:42:40.613Z,1299.38
2018-10-12T11:43:40.895Z,1288.13
2018-10-12T11:44:40.895Z,1282.50
2018-10-12T11:45:41.090Z,1282.50
2018-10-12T11:46:41.273Z,1260.00
2018-10-12T11:47:41.458Z,1265.63
2018-10-12T11:48:41.648Z,1271.25
2018-10-12T11:49:41.837Z,1260.00
2018-10-12T11:50:42.032Z,1248.75
2018-10-12T11:51:42.223Z,1260.00
2018-10-12T11:52:42.423Z,1260.00
2018-10-12T11:53:42.599Z,1231.88
2018-10-12T11:54:42.784Z,1231.88
2018-10-12T11:55:42.970Z,1181.25
2018-10-12T11:56:43.155Z,1198.13
2018-10-12T11:57:43.344Z,1164.38
2018-10-12T11:58:43.540Z,1130.63
2018-10-12T11:59:43.729Z,1091.25
2018-10-12T12:00:43.917Z,1051.88
2018-10-12T12:01:44.108Z,1012.50
2018-10-12T12:02:44.299Z,973.13
2018-10-12T12:03:44.484Z,945.00
2018-10-12T12:04:44.670Z,956.25
2018-10-12T12:05:44.869Z,961.88
2018-10-12T12:06:45.056Z,945.00
2018-10-12T12:07:45.241Z,922.50
2018-10-12T12:08:45.426Z,911.25
2018-10-12T12:09:45.621Z,888.75
2018-10-12T12:10:45.823Z,877.50
2018-10-12T12:11:46.015Z,855.00
2018-10-12T12:12:46.208Z,838.13
2018-10-12T12:13:46.484Z,821.25
2018-10-12T12:14:46.642Z,804.38
2018-10-12T12:15:46.852Z,793.13
2018-10-12T12:16:47.064Z,776.25
2018-10-12T12:17:48.949Z,759.38
2018-10-12T12:18:47.686Z,736.88
2018-10-12T12:19:47.956Z,720.00
2018-10-12T12:20:47.870Z,697.50
2018-10-12T12:21:48.061Z,675.00
2018-10-12T12:22:48.284Z,663.75
2018-10-12T12:23:48.461Z,641.25
2018-10-12T12:24:48.654Z,579.38
2018-10-12T12:25:48.845Z,556.88
2018-10-12T12:26:49.048Z,545.63
2018-10-12T12:27:49.235Z,540.00
2018-10-12T12:28:49.428Z,523.13
2018-10-12T12:29:49.629Z,523.13
2018-10-12T12:30:49.831Z,517.50
2018-10-12T12:31:50.033Z,495.00
2018-10-12T12:32:50.232Z,438.75
2018-10-12T12:33:50.430Z,331.88
2018-10-12T12:34:50.746Z,230.63
2018-10-12T12:35:51.236Z,185.63
2018-10-12T12:36:51.888Z,174.38
2018-10-12T12:37:51.123Z,163.13
2018-10-12T12:38:51.305Z,140.63
2018-10-12T12:39:51.961Z,129.38
2018-10-12T12:40:51.643Z,112.50
2018-10-12T12:41:51.829Z,101.25
2018-10-12T12:42:52.012Z,101.25
2018-10-12T12:43:52.196Z,90.00
2018-10-12T12:44:52.388Z,78.75
2018-10-12T12:45:53.902Z,73.13
2018-10-12T12:46:53.941Z,73.13
2018-10-12T12:47:56.027Z,67.50
2018-10-12T12:48:54.524Z,67.50
2018-10-12T12:49:57.148Z,67.50
2018-10-12T12:50:56.463Z,67.50
2018-10-12T12:51:55.354Z,67.50
2018-10-12T12:52:55.309Z,61.88
2018-10-12T12:53:55.060Z,61.88